Time;durP1;ratioP1;P1;durP2;ratioP2;P2;SDS_P1;SDS_P2;PMS_P1;PMS_P2;Temp;Humidity;BMP_temperature;BMP_pressure;BME280_temperature;BME280_humidity;BME280_pressure;Samples;Min_cycle;Max_cycle;Signal;HPM_P1;HPM_P2
2024/03/23 00:01:27;;;;;;;17.20;8.60;;;9.00;99.90;;;;;;5046780;28;20443;-70
2024/03/23 00:03:58;;;;;;;18.80;10.10;;;8.90;99.90;;;;;;5053362;28;20467;-70
2024/03/23 00:06:27;;;;;;;17.00;9.47;;;8.80;99.90;;;;;;5051749;28;20452;-70
2024/03/23 00:08:58;;;;;;;17.57;9.80;;;8.60;99.90;;;;;;5056031;28;20447;-72
2024/03/23 00:11:28;;;;;;;19.90;9.73;;;8.50;99.90;;;;;;5048883;28;20449;-71
2024/03/23 00:13:58;;;;;;;16.37;9.10;;;8.40;99.90;;;;;;5052469;28;21063;-71
2024/03/23 00:16:28;;;;;;;14.70;8.93;;;8.50;99.90;;;;;;5046535;28;20452;-70
2024/03/23 00:18:58;;;;;;;16.50;10.83;;;8.50;99.90;;;;;;5048972;28;20979;-72
2024/03/23 00:21:28;;;;;;;15.90;10.03;;;8.30;99.90;;;;;;5043976;28;20484;-71
2024/03/23 00:23:58;;;;;;;17.37;9.60;;;8.20;99.90;;;;;;5040050;28;20475;-70
2024/03/23 00:26:28;;;;;;;18.57;10.60;;;8.10;99.90;;;;;;5051632;28;20459;-73
2024/03/23 00:28:58;;;;;;;19.37;12.00;;;8.00;99.90;;;;;;5051540;28;20507;-71
2024/03/23 00:31:28;;;;;;;17.37;9.73;;;8.20;99.90;;;;;;5049790;28;20908;-72
2024/03/23 00:33:59;;;;;;;17.93;9.93;;;8.20;99.90;;;;;;5047297;28;20474;-72
2024/03/23 00:36:29;;;;;;;17.90;11.03;;;8.20;99.90;;;;;;5056350;28;20446;-71
2024/03/23 00:38:59;;;;;;;18.13;10.00;;;8.00;99.90;;;;;;5050217;28;20455;-70
2024/03/23 00:41:29;;;;;;;17.00;9.80;;;8.00;99.90;;;;;;5041282;28;20900;-70
2024/03/23 00:44:00;;;;;;;16.30;9.90;;;8.20;99.90;;;;;;5053301;28;20484;-72
2024/03/23 00:46:29;;;;;;;18.93;10.07;;;8.40;99.90;;;;;;5048087;28;20528;-68
2024/03/23 00:49:00;;;;;;;17.70;10.10;;;8.70;99.90;;;;;;5051842;28;20995;-71
2024/03/23 00:51:29;;;;;;;14.10;9.50;;;8.80;99.90;;;;;;5047232;28;20788;-69
2024/03/23 00:53:57;;;;;;;17.17;9.73;;;8.80;99.90;;;;;;5050164;28;20474;-71
2024/03/23 00:56:24;;;;;;;15.70;10.20;;;8.70;99.90;;;;;;5051916;28;20486;-71
2024/03/23 00:58:51;;;;;;;16.03;9.63;;;8.60;99.90;;;;;;5047711;28;21031;-71
2024/03/23 01:01:17;;;;;;;19.80;9.50;;;8.40;99.90;;;;;;5052022;28;20490;-70
2024/03/23 01:03:44;;;;;;;24.23;10.40;;;8.20;99.90;;;;;;5057761;28;20475;-71
2024/03/23 01:06:10;;;;;;;18.67;11.30;;;8.10;99.90;;;;;;5048208;28;20473;-71
2024/03/23 01:08:37;;;;;;;19.00;9.70;;;8.10;99.90;;;;;;5048830;28;21023;-70
2024/03/23 01:11:04;;;;;;;24.53;10.53;;;8.40;99.90;;;;;;5054358;28;21048;-71
2024/03/23 01:13:31;;;;;;;16.27;10.23;;;8.50;99.90;;;;;;5044024;28;20483;-71
2024/03/23 01:15:57;;;;;;;18.90;10.30;;;8.60;99.90;;;;;;5048168;28;20482;-71
2024/03/23 01:18:26;;;;;;;15.07;9.90;;;8.70;99.90;;;;;;5050737;28;20477;-71
2024/03/23 01:20:52;;;;;;;16.40;10.70;;;8.60;99.90;;;;;;5055712;28;20478;-71
2024/03/23 01:23:19;;;;;;;15.53;9.20;;;8.40;99.90;;;;;;5055623;28;20466;-70
2024/03/23 01:25:52;;;;;;;14.30;9.03;;;8.30;99.90;;;;;;5049611;28;20474;-71
2024/03/23 01:28:20;;;;;;;14.13;9.37;;;8.20;99.90;;;;;;5048002;28;20457;-72
2024/03/23 01:30:46;;;;;;;14.93;8.50;;;8.30;99.90;;;;;;5048324;28;20466;-69
2024/03/23 01:33:13;;;;;;;15.43;9.60;;;8.40;99.90;;;;;;5051008;28;20473;-71
2024/03/23 01:35:39;;;;;;;15.27;9.73;;;8.50;99.90;;;;;;5046044;28;20458;-71
2024/03/23 01:38:06;;;;;;;16.83;9.47;;;8.50;99.90;;;;;;5053269;28;20996;-70
2024/03/23 01:40:32;;;;;;;17.97;8.90;;;8.50;99.90;;;;;;5049034;28;20501;-71
2024/03/23 01:43:05;;;;;;;16.13;8.70;;;8.70;99.90;;;;;;5054649;28;20470;-70
2024/03/23 01:45:33;;;;;;;15.23;9.80;;;8.90;99.90;;;;;;5039137;28;20458;-69
2024/03/23 01:48:00;;;;;;;17.03;9.40;;;8.80;99.90;;;;;;5051587;28;20458;-71
2024/03/23 01:50:26;;;;;;;17.20;9.17;;;8.90;99.90;;;;;;5047552;28;20461;-70
2024/03/23 01:52:53;;;;;;;16.07;10.33;;;8.90;99.90;;;;;;5048786;28;20471;-70
2024/03/23 01:55:20;;;;;;;14.20;7.87;;;8.90;99.90;;;;;;5049616;28;20463;-69
2024/03/23 01:57:47;;;;;;;15.83;8.97;;;9.20;99.90;;;;;;5047660;28;20459;-71
2024/03/23 02:00:14;;;;;;;17.20;9.67;;;9.20;99.90;;;;;;5050584;28;21251;-70
2024/03/23 02:02:46;;;;;;;13.30;8.00;;;9.10;99.90;;;;;;5053691;28;20463;-70
2024/03/23 02:05:13;;;;;;;14.70;8.40;;;9.10;99.90;;;;;;5073062;28;20818;-69
2024/03/23 02:07:40;;;;;;;16.67;9.00;;;9.20;99.90;;;;;;5049055;28;20442;-70
2024/03/23 02:10:07;;;;;;;13.67;7.70;;;9.20;99.90;;;;;;5051080;28;20455;-70
2024/03/23 02:12:34;;;;;;;14.97;7.20;;;9.30;99.90;;;;;;5052650;28;20562;-71
2024/03/23 02:15:00;;;;;;;13.20;5.93;;;9.50;99.90;;;;;;5050287;28;20456;-70
2024/03/23 02:17:27;;;;;;;11.47;5.90;;;9.60;99.90;;;;;;5052436;28;20458;-71
2024/03/23 02:19:54;;;;;;;11.30;5.50;;;9.70;99.90;;;;;;5043688;28;20443;-71
2024/03/23 02:22:23;;;;;;;14.00;6.50;;;9.90;99.90;;;;;;5043344;28;20483;-71
2024/03/23 02:24:50;;;;;;;13.00;5.83;;;10.00;99.90;;;;;;5044113;28;20830;-71
2024/03/23 02:27:17;;;;;;;10.37;4.70;;;10.10;99.90;;;;;;5045394;28;20448;-69
2024/03/23 02:29:44;;;;;;;11.70;5.07;;;10.10;99.90;;;;;;5042841;28;20451;-71
2024/03/23 02:32:11;;;;;;;10.83;4.83;;;10.00;99.90;;;;;;5045866;28;20473;-71
2024/03/23 02:34:38;;;;;;;10.27;4.73;;;10.20;99.90;;;;;;5050713;28;20448;-70
2024/03/23 02:37:10;;;;;;;13.10;5.10;;;10.30;99.90;;;;;;5040112;28;20456;-71
2024/03/23 02:39:37;;;;;;;11.13;4.60;;;10.40;99.90;;;;;;5040658;28;20448;-70
2024/03/23 02:42:05;;;;;;;10.20;4.00;;;10.50;99.90;;;;;;5048952;28;20487;-70
2024/03/23 02:44:32;;;;;;;10.27;4.60;;;10.60;99.90;;;;;;5036727;28;20497;-70
2024/03/23 02:46:58;;;;;;;10.07;3.80;;;10.60;99.90;;;;;;5048246;28;20977;-70
2024/03/23 02:49:26;;;;;;;9.70;3.80;;;10.70;99.90;;;;;;5040294;28;20454;-70
2024/03/23 02:51:52;;;;;;;8.10;3.53;;;10.60;99.90;;;;;;5043180;28;20868;-70
2024/03/23 02:54:19;;;;;;;9.40;3.33;;;10.70;99.90;;;;;;5029167;28;20535;-69
2024/03/23 02:56:45;;;;;;;9.37;3.70;;;10.70;99.90;;;;;;5045311;28;20499;-69
2024/03/23 02:59:13;;;;;;;12.83;3.90;;;10.80;99.90;;;;;;5054060;28;20443;-70
2024/03/23 03:01:39;;;;;;;7.47;2.83;;;10.80;99.90;;;;;;5049032;28;20475;-71
2024/03/23 03:04:06;;;;;;;8.93;2.97;;;10.80;99.90;;;;;;5050479;28;20472;-70
2024/03/23 03:06:32;;;;;;;7.57;3.03;;;10.90;99.90;;;;;;5038539;28;20445;-70
2024/03/23 03:08:59;;;;;;;8.20;3.30;;;10.90;99.90;;;;;;5043443;28;20453;-71
2024/03/23 03:11:25;;;;;;;8.60;3.73;;;10.90;99.90;;;;;;5049280;28;21006;-70
2024/03/23 03:13:52;;;;;;;7.90;2.70;;;11.00;99.90;;;;;;5053493;28;20973;-71
2024/03/23 03:16:20;;;;;;;10.70;3.53;;;10.80;99.90;;;;;;5047560;28;20459;-71
2024/03/23 03:18:47;;;;;;;8.63;2.87;;;10.80;99.90;;;;;;5053818;28;20453;-70
2024/03/23 03:21:13;;;;;;;8.60;2.97;;;10.70;99.90;;;;;;5048214;28;20489;-72
2024/03/23 03:23:40;;;;;;;9.20;2.80;;;10.70;99.90;;;;;;5051838;28;20878;-71
2024/03/23 03:26:06;;;;;;;8.80;3.00;;;10.70;99.90;;;;;;5049436;28;20448;-71
2024/03/23 03:28:36;;;;;;;7.43;2.70;;;10.60;99.90;;;;;;5054046;28;20503;-70
2024/03/23 03:31:02;;;;;;;8.73;2.90;;;10.40;99.90;;;;;;5049491;28;20494;-71
2024/03/23 03:33:30;;;;;;;9.47;3.20;;;10.20;99.90;;;;;;5048617;28;20481;-72
2024/03/23 03:35:56;;;;;;;8.33;3.00;;;10.30;99.90;;;;;;5041067;28;20833;-71
2024/03/23 03:38:23;;;;;;;8.00;2.80;;;10.60;99.90;;;;;;5049890;28;20451;-72
2024/03/23 03:40:49;;;;;;;8.60;2.83;;;10.80;99.90;;;;;;5049554;28;20481;-71
2024/03/23 03:43:16;;;;;;;8.70;3.27;;;10.80;99.90;;;;;;5048102;28;20987;-71
2024/03/23 03:45:42;;;;;;;10.43;2.70;;;10.90;99.90;;;;;;5043001;28;21011;-72
2024/03/23 03:48:09;;;;;;;7.43;2.60;;;11.10;99.90;;;;;;5049117;28;20480;-70
2024/03/23 03:50:37;;;;;;;8.70;3.80;;;11.00;99.90;;;;;;5049525;28;20465;-70
2024/03/23 03:53:04;;;;;;;9.13;2.70;;;11.00;99.90;;;;;;5048044;28;21025;-71
2024/03/23 03:55:30;;;;;;;8.60;3.13;;;10.90;99.90;;;;;;5049489;28;20456;-72
2024/03/23 03:57:57;;;;;;;10.47;3.90;;;10.90;99.90;;;;;;5046828;28;21024;-71
2024/03/23 04:00:23;;;;;;;8.43;2.67;;;10.80;99.90;;;;;;5045885;28;20477;-72
2024/03/23 04:02:50;;;;;;;7.40;2.90;;;10.80;99.90;;;;;;5044825;28;20474;-72
2024/03/23 04:05:16;;;;;;;8.73;3.23;;;10.90;99.90;;;;;;5045720;28;20466;-70
2024/03/23 04:07:45;;;;;;;9.63;3.10;;;10.90;99.90;;;;;;5049458;28;20947;-71
2024/03/23 04:10:11;;;;;;;8.50;2.70;;;11.20;99.90;;;;;;5049035;28;20454;-71
2024/03/23 04:12:38;;;;;;;7.97;2.80;;;11.40;99.90;;;;;;5046646;28;20468;-71
2024/03/23 04:15:04;;;;;;;7.87;2.83;;;11.30;99.90;;;;;;5048082;28;20530;-71
2024/03/23 04:17:33;;;;;;;9.57;3.23;;;11.40;99.90;;;;;;5048374;28;20997;-72
2024/03/23 04:20:00;;;;;;;7.80;2.40;;;11.50;99.90;;;;;;5048757;28;20491;-71
2024/03/23 04:22:27;;;;;;;7.70;2.50;;;11.50;99.90;;;;;;5048226;28;20520;-70
2024/03/23 04:24:55;;;;;;;7.53;2.60;;;11.60;99.90;;;;;;5048345;28;20456;-71
2024/03/23 04:27:22;;;;;;;9.90;2.53;;;11.70;99.90;;;;;;5048545;28;21085;-71
2024/03/23 04:29:48;;;;;;;10.03;3.43;;;11.80;99.90;;;;;;5048505;28;20446;-71
2024/03/23 04:32:16;;;;;;;10.33;2.90;;;11.80;99.90;;;;;;5042314;28;20474;-71
2024/03/23 04:34:43;;;;;;;11.47;3.53;;;11.70;99.90;;;;;;5047530;28;20472;-72
2024/03/23 04:37:10;;;;;;;9.80;4.43;;;11.30;99.90;;;;;;5048945;28;20853;-74
2024/03/23 04:39:37;;;;;;;10.50;4.70;;;10.60;99.90;;;;;;5046946;28;20467;-73
2024/03/23 04:42:06;;;;;;;11.17;5.27;;;10.20;99.90;;;;;;5047538;28;20980;-75
2024/03/23 04:44:33;;;;;;;11.17;5.60;;;9.90;99.90;;;;;;5047587;28;20467;-74
2024/03/23 04:47:01;;;;;;;12.17;5.37;;;9.70;99.90;;;;;;5039790;28;20479;-73
2024/03/23 04:49:28;;;;;;;12.03;6.57;;;9.70;99.90;;;;;;5048341;28;20474;-74
2024/03/23 04:51:55;;;;;;;13.87;6.57;;;9.70;99.90;;;;;;5048426;28;20499;-74
2024/03/23 04:54:22;;;;;;;11.40;6.50;;;9.60;99.90;;;;;;5046267;28;20561;-74
2024/03/23 04:56:49;;;;;;;13.77;7.00;;;9.70;99.90;;;;;;5042172;28;20497;-74
2024/03/23 04:59:16;;;;;;;17.33;8.97;;;9.70;99.90;;;;;;5048955;28;20451;-74
2024/03/23 05:01:43;;;;;;;19.60;9.50;;;9.70;99.90;;;;;;5044427;28;20555;-73
2024/03/23 05:04:09;;;;;;;18.43;11.30;;;9.70;99.90;;;;;;5057518;28;20467;-74
2024/03/23 05:06:36;;;;;;;18.87;11.67;;;9.70;99.90;;;;;;5046842;28;20451;-73
2024/03/23 05:09:05;;;;;;;20.53;11.67;;;9.80;99.90;;;;;;5047213;28;20458;-71
2024/03/23 05:11:33;;;;;;;22.67;14.00;;;9.80;99.90;;;;;;5047114;28;20481;-74
2024/03/23 05:13:59;;;;;;;26.33;15.33;;;9.80;99.90;;;;;;5046611;28;20474;-73
2024/03/23 05:16:28;;;;;;;27.67;16.47;;;9.90;99.90;;;;;;5047301;28;21174;-74
2024/03/23 05:18:55;;;;;;;21.83;14.50;;;9.80;99.90;;;;;;5047597;28;20478;-73
2024/03/23 05:21:22;;;;;;;26.97;16.77;;;9.80;99.90;;;;;;5046994;28;20489;-73
2024/03/23 05:23:48;;;;;;;23.67;15.37;;;9.80;99.90;;;;;;5046364;28;20478;-73
2024/03/23 05:26:15;;;;;;;24.97;15.27;;;9.80;99.90;;;;;;5042187;28;20460;-73
2024/03/23 05:28:41;;;;;;;25.60;14.80;;;9.80;99.90;;;;;;5047572;28;20463;-73
2024/03/23 05:31:08;;;;;;;23.73;15.20;;;9.80;99.90;;;;;;5047079;28;20824;-74
2024/03/23 05:33:37;;;;;;;24.70;14.70;;;9.80;99.90;;;;;;5046485;28;20466;-74
2024/03/23 05:36:05;;;;;;;27.33;15.90;;;9.80;99.90;;;;;;5047383;28;20462;-74
2024/03/23 05:38:31;;;;;;;25.30;16.57;;;9.80;99.90;;;;;;5047088;28;20964;-73
2024/03/23 05:41:00;;;;;;;25.33;15.80;;;9.80;99.90;;;;;;5046746;28;20457;-73
2024/03/23 05:43:26;;;;;;;24.90;14.80;;;9.80;99.90;;;;;;5039268;28;20471;-73
2024/03/23 05:45:57;;;;;;;23.80;15.10;;;9.80;99.90;;;;;;5047718;28;20453;-73
2024/03/23 05:48:23;;;;;;;20.13;11.27;;;9.80;99.90;;;;;;5047438;28;20558;-73
2024/03/23 05:50:52;;;;;;;18.83;10.87;;;9.80;99.90;;;;;;5046475;28;20452;-73
2024/03/23 05:53:20;;;;;;;14.07;7.60;;;9.60;99.90;;;;;;5045337;28;20469;-72
2024/03/23 05:55:47;;;;;;;13.37;6.33;;;9.50;99.90;;;;;;5032497;28;20853;-72
2024/03/23 05:58:15;;;;;;;16.30;8.50;;;9.40;99.90;;;;;;5039502;28;20470;-73
2024/03/23 06:00:42;;;;;;;13.30;7.20;;;9.20;99.90;;;;;;5046536;28;20461;-72
2024/03/23 06:03:09;;;;;;;13.13;5.60;;;9.20;99.90;;;;;;5044169;28;20485;-73
2024/03/23 06:05:36;;;;;;;14.80;7.17;;;9.20;99.90;;;;;;5046232;28;20513;-73
2024/03/23 06:08:04;;;;;;;15.50;7.60;;;9.20;99.90;;;;;;5047773;28;20509;-73
2024/03/23 06:10:31;;;;;;;13.17;6.13;;;9.20;99.90;;;;;;5047402;28;20444;-74
2024/03/23 06:12:58;;;;;;;13.30;6.50;;;9.20;99.90;;;;;;5045430;28;20529;-72
2024/03/23 06:15:27;;;;;;;13.23;4.83;;;9.10;99.90;;;;;;5046666;28;20468;-73
2024/03/23 06:17:53;;;;;;;11.87;4.53;;;9.10;99.90;;;;;;5047117;28;21016;-73
2024/03/23 06:20:20;;;;;;;12.73;5.40;;;9.00;99.90;;;;;;5047092;28;20466;-73
2024/03/23 06:22:46;;;;;;;13.90;6.17;;;9.00;99.90;;;;;;5045295;28;20496;-72
2024/03/23 06:25:14;;;;;;;11.63;5.60;;;8.90;99.90;;;;;;5045860;28;20496;-73
2024/03/23 06:27:40;;;;;;;11.37;4.67;;;8.90;99.90;;;;;;5038423;28;20946;-72
2024/03/23 06:30:08;;;;;;;10.60;4.10;;;8.90;99.90;;;;;;5046321;28;20980;-72
2024/03/23 06:32:34;;;;;;;9.13;3.63;;;8.80;99.90;;;;;;5044654;28;20476;-72
2024/03/23 06:35:07;;;;;;;10.47;4.20;;;8.90;99.90;;;;;;5046211;28;20457;-72
2024/03/23 06:37:33;;;;;;;11.60;3.47;;;8.90;99.90;;;;;;5045103;28;20468;-72
2024/03/23 06:40:00;;;;;;;10.70;3.50;;;8.90;99.90;;;;;;5045630;28;21030;-71
2024/03/23 06:42:28;;;;;;;11.20;2.80;;;8.80;99.90;;;;;;5044652;28;20538;-72
2024/03/23 06:44:55;;;;;;;9.30;2.67;;;8.80;99.90;;;;;;5045332;28;20973;-72
2024/03/23 06:47:21;;;;;;;8.87;2.70;;;8.80;99.90;;;;;;5043090;28;20537;-72
2024/03/23 06:49:48;;;;;;;7.93;1.90;;;8.80;99.90;;;;;;5045092;28;20958;-71
2024/03/23 06:52:14;;;;;;;7.83;1.87;;;8.80;99.90;;;;;;5045334;28;20886;-71
2024/03/23 06:54:41;;;;;;;8.60;2.07;;;8.90;99.90;;;;;;5046513;28;20510;-71
2024/03/23 06:57:07;;;;;;;6.83;1.57;;;8.90;99.90;;;;;;5059244;28;20453;-72
2024/03/23 06:59:35;;;;;;;7.40;1.50;;;8.90;99.90;;;;;;5046584;28;21224;-72
2024/03/23 07:02:01;;;;;;;7.00;1.40;;;8.90;99.90;;;;;;5044524;28;20507;-72
2024/03/23 07:04:28;;;;;;;6.77;1.30;;;8.90;99.90;;;;;;5045380;28;21141;-72
2024/03/23 07:06:54;;;;;;;6.50;1.10;;;8.90;99.90;;;;;;5046009;28;20513;-72
2024/03/23 07:09:25;;;;;;;6.50;1.03;;;9.00;99.90;;;;;;5045515;28;20567;-72
2024/03/23 07:11:53;;;;;;;6.50;0.93;;;9.00;99.90;;;;;;5045056;28;20449;-72
2024/03/23 07:14:20;;;;;;;6.50;1.17;;;9.10;99.90;;;;;;5037821;28;20444;-71
2024/03/23 07:16:49;;;;;;;7.10;1.10;;;9.10;99.90;;;;;;5045850;28;20483;-72
2024/03/23 07:19:16;;;;;;;6.23;0.90;;;9.00;99.90;;;;;;5045214;28;20472;-72
2024/03/23 07:21:43;;;;;;;6.10;0.90;;;9.00;99.90;;;;;;5045123;28;20496;-73
2024/03/23 07:24:09;;;;;;;6.67;1.20;;;9.00;99.90;;;;;;5039500;28;20473;-72
2024/03/23 07:26:37;;;;;;;6.40;1.10;;;9.20;99.90;;;;;;5045290;28;20479;-72
2024/03/23 07:29:04;;;;;;;6.20;1.00;;;9.20;99.90;;;;;;5045733;28;20937;-72
2024/03/23 07:31:31;;;;;;;6.70;1.80;;;9.20;99.90;;;;;;5046310;28;20503;-73
2024/03/23 07:33:58;;;;;;;6.20;1.03;;;9.20;99.90;;;;;;5045523;28;20482;-72
2024/03/23 07:36:26;;;;;;;6.13;0.77;;;9.40;99.90;;;;;;5046408;28;20518;-71
2024/03/23 07:38:53;;;;;;;6.70;1.10;;;9.30;99.90;;;;;;5046165;28;20983;-71
2024/03/23 07:41:21;;;;;;;6.40;0.87;;;9.30;99.90;;;;;;5044928;28;20456;-71
2024/03/23 07:43:47;;;;;;;6.17;0.80;;;9.30;99.90;;;;;;5045379;28;20472;-71
2024/03/23 07:46:16;;;;;;;6.00;1.10;;;9.30;99.90;;;;;;5046160;28;20474;-71
2024/03/23 07:48:42;;;;;;;5.83;0.70;;;9.20;99.90;;;;;;5046323;28;20471;-73
2024/03/23 07:51:12;;;;;;;5.80;0.70;;;9.10;99.90;;;;;;5046239;28;20509;-72
2024/03/23 07:53:38;;;;;;;6.00;0.70;;;9.10;99.90;;;;;;5035179;28;20854;-72
2024/03/23 07:56:08;;;;;;;5.90;0.70;;;9.10;99.90;;;;;;5045084;28;20449;-70
2024/03/23 07:58:34;;;;;;;5.70;0.60;;;9.00;99.90;;;;;;5045301;28;20457;-71
2024/03/23 08:01:07;;;;;;;6.20;0.80;;;8.90;99.90;;;;;;5044964;28;21169;-72
2024/03/23 08:03:34;;;;;;;5.90;0.90;;;8.80;99.90;;;;;;5044309;28;20491;-72
2024/03/23 08:06:10;;;;;;;5.77;0.70;;;8.70;99.90;;;;;;5044850;28;20455;-73
2024/03/23 08:08:36;;;;;;;6.30;1.20;;;8.50;99.90;;;;;;5044935;28;20463;-74
2024/03/23 08:11:03;;;;;;;6.47;1.00;;;8.10;99.90;;;;;;5044576;28;20463;-74
2024/03/23 08:13:30;;;;;;;6.87;1.27;;;7.90;99.90;;;;;;5045670;28;20470;-73
2024/03/23 08:16:00;;;;;;;6.20;0.80;;;7.80;99.90;;;;;;5048589;28;20471;-73
2024/03/23 08:18:27;;;;;;;6.13;1.00;;;8.00;99.90;;;;;;5048846;28;20475;-71
2024/03/23 08:20:58;;;;;;;6.33;0.93;;;8.10;99.90;;;;;;5049054;28;20456;-72
2024/03/23 08:23:26;;;;;;;6.87;1.10;;;8.10;99.90;;;;;;5042919;28;20489;-72
2024/03/23 08:25:58;;;;;;;6.53;1.30;;;8.00;99.90;;;;;;5050844;28;20477;-72
2024/03/23 08:28:24;;;;;;;6.50;0.90;;;7.80;99.90;;;;;;5049589;28;20527;-73
2024/03/23 08:30:51;;;;;;;6.30;0.90;;;7.80;99.90;;;;;;5049623;28;20450;-72
2024/03/23 08:33:17;;;;;;;6.00;0.80;;;7.80;99.90;;;;;;5048155;28;20468;-72
2024/03/23 08:35:54;;;;;;;6.00;0.80;;;7.80;99.90;;;;;;5050074;28;20453;-72
2024/03/23 08:38:21;;;;;;;6.80;1.03;;;7.80;99.90;;;;;;5049810;28;20451;-72
2024/03/23 08:40:57;;;;;;;8.10;0.90;;;7.70;99.90;;;;;;5041363;28;20444;-72
2024/03/23 08:43:23;;;;;;;7.43;1.07;;;7.80;99.90;;;;;;5047605;28;20494;-71
2024/03/23 08:45:50;;;;;;;6.30;1.00;;;8.10;99.90;;;;;;5048984;28;20961;-73
2024/03/23 08:48:16;;;;;;;7.33;1.60;;;8.30;99.90;;;;;;5049422;28;20456;-72
2024/03/23 08:50:43;;;;;;;7.40;1.13;;;8.20;99.90;;;;;;5049024;28;20464;-74
2024/03/23 08:53:09;;;;;;;7.20;1.20;;;8.30;99.90;;;;;;5064257;28;20923;-74
2024/03/23 08:55:36;;;;;;;8.30;1.40;;;8.20;99.90;;;;;;5048771;28;20448;-72
2024/03/23 08:58:08;;;;;;;9.30;1.40;;;8.20;99.90;;;;;;5048253;28;20459;-71
2024/03/23 09:00:34;;;;;;;7.80;1.23;;;8.20;99.90;;;;;;5048672;28;21186;-71
2024/03/23 09:03:02;;;;;;;9.55;2.20;;;8.10;99.90;;;;;;5045299;28;20464;-73
2024/03/23 09:05:30;;;;;;;8.80;2.30;;;8.10;99.90;;;;;;5047702;28;20205;-72
2024/03/23 09:07:57;;;;;;;7.40;1.83;;;7.90;99.90;;;;;;5048156;28;21165;-74
2024/03/23 09:10:23;;;;;;;8.43;1.87;;;7.80;99.90;;;;;;5048124;28;21255;-72
2024/03/23 09:12:50;;;;;;;9.83;1.80;;;7.80;99.90;;;;;;5046124;28;20456;-72
2024/03/23 09:15:17;;;;;;;8.67;2.30;;;7.90;99.90;;;;;;5047527;28;20479;-73
2024/03/23 09:17:45;;;;;;;9.53;2.50;;;8.00;99.90;;;;;;5047474;28;20456;-72
2024/03/23 09:20:11;;;;;;;9.13;2.30;;;8.20;99.90;;;;;;5047538;28;20459;-74
2024/03/23 09:22:38;;;;;;;11.40;2.63;;;8.30;99.90;;;;;;5046188;28;21019;-71
2024/03/23 09:25:05;;;;;;;9.63;2.40;;;8.60;99.90;;;;;;5046745;28;20479;-71
2024/03/23 09:27:32;;;;;;;8.97;2.57;;;9.10;99.90;;;;;;5045131;28;20525;-73
2024/03/23 09:29:59;;;;;;;8.40;2.50;;;9.50;99.90;;;;;;5039118;28;20460;-71
2024/03/23 09:32:27;;;;;;;9.50;3.60;;;9.40;99.90;;;;;;5046195;28;20468;-69
2024/03/23 09:34:53;;;;;;;9.40;2.90;;;9.30;99.90;;;;;;5047010;28;20466;-71
2024/03/23 09:37:20;;;;;;;11.30;3.27;;;9.10;99.90;;;;;;5047385;28;20451;-71
2024/03/23 09:39:46;;;;;;;17.13;3.40;;;9.20;99.90;;;;;;5046048;28;20453;-71
2024/03/23 09:42:14;;;;;;;13.93;3.80;;;9.00;99.90;;;;;;5046331;28;20484;-70
2024/03/23 09:44:40;;;;;;;9.20;3.40;;;8.80;99.90;;;;;;5047006;28;20452;-71
2024/03/23 09:47:08;;;;;;;12.93;3.20;;;8.70;99.90;;;;;;5046751;28;20449;-71
2024/03/23 09:49:36;;;;;;;11.80;4.80;;;8.70;99.90;;;;;;5047056;28;20479;-71
2024/03/23 09:52:04;;;;;;;9.93;2.93;;;8.70;99.90;;;;;;5046341;28;20467;-71
2024/03/23 09:54:32;;;;;;;10.30;3.47;;;8.50;99.90;;;;;;5045521;28;20464;-73
2024/03/23 09:56:59;;;;;;;12.50;3.67;;;8.40;99.90;;;;;;5046246;28;21358;-72
2024/03/23 09:59:26;;;;;;;8.30;2.87;;;8.30;99.90;;;;;;5046901;28;20448;-71
2024/03/23 10:01:54;;;;;;;10.00;3.23;;;8.40;99.90;;;;;;5045578;28;20993;-71
2024/03/23 10:04:41;;;;;;;9.93;3.40;;;8.40;99.90;;;;;;5047043;28;20887;-73
2024/03/23 10:07:16;;;;;;;11.93;3.23;;;8.70;99.90;;;;;;5047979;28;21030;-70
2024/03/23 10:09:42;;;;;;;11.40;3.40;;;8.90;99.90;;;;;;5047954;28;20474;-71
2024/03/23 10:12:12;;;;;;;9.90;3.33;;;9.00;99.90;;;;;;5047389;28;20472;-71
2024/03/23 10:14:38;;;;;;;10.67;2.97;;;9.00;99.90;;;;;;5047293;28;21091;-71
2024/03/23 10:17:17;;;;;;;10.63;3.10;;;9.20;99.90;;;;;;5047076;28;20463;-71
2024/03/23 10:19:45;;;;;;;10.80;3.63;;;9.70;99.90;;;;;;5043929;28;20912;-71
2024/03/23 10:22:15;;;;;;;11.50;4.07;;;10.20;99.90;;;;;;5043737;28;20945;-69
2024/03/23 10:24:42;;;;;;;9.40;3.10;;;10.50;99.90;;;;;;5047190;28;20474;-69
2024/03/23 10:27:09;;;;;;;9.93;3.20;;;10.90;99.90;;;;;;5047155;28;20459;-69
2024/03/23 10:29:35;;;;;;;13.17;3.40;;;10.70;99.90;;;;;;5046467;28;21174;-71
2024/03/23 10:32:09;;;;;;;10.70;2.80;;;10.10;99.90;;;;;;5045840;28;20458;-71
2024/03/23 10:34:36;;;;;;;13.80;3.90;;;9.70;99.90;;;;;;5045950;28;20449;-71
2024/03/23 10:37:05;;;;;;;14.90;3.40;;;9.60;99.90;;;;;;5045707;28;20951;-70
2024/03/23 10:39:34;;;;;;;13.70;4.30;;;9.70;99.90;;;;;;5046115;28;20450;-70
2024/03/23 10:42:05;;;;;;;9.70;3.17;;;10.10;99.90;;;;;;5044957;28;20454;-70
2024/03/23 10:44:31;;;;;;;14.00;3.63;;;10.10;99.90;;;;;;5045067;28;20456;-72
2024/03/23 10:47:02;;;;;;;13.70;3.30;;;9.90;99.90;;;;;;5046141;28;21063;-70
2024/03/23 10:49:29;;;;;;;9.30;3.23;;;9.60;99.90;;;;;;5046024;28;20469;-70
2024/03/23 10:52:00;;;;;;;12.53;2.97;;;9.30;99.90;;;;;;5045549;28;20468;-70
2024/03/23 10:54:29;;;;;;;11.27;3.63;;;9.10;99.90;;;;;;5044546;28;20864;-71
2024/03/23 10:57:04;;;;;;;9.50;3.50;;;8.60;99.90;;;;;;5045714;28;20554;-73
2024/03/23 10:59:31;;;;;;;11.37;4.03;;;6.40;99.90;;;;;;5047245;28;20527;-74
2024/03/23 11:01:59;;;;;;;11.37;4.37;;;5.40;99.90;;;;;;5045876;28;20453;-74
2024/03/23 11:04:33;;;;;;;14.27;5.73;;;5.20;99.90;;;;;;5045083;28;20484;-75
2024/03/23 11:07:00;;;;;;;17.50;5.80;;;5.20;99.90;;;;;;5045415;28;20451;-74
2024/03/23 11:09:40;;;;;;;14.63;6.03;;;5.30;99.90;;;;;;5045788;28;20452;-74
2024/03/23 11:12:27;;;;;;;11.43;3.80;;;5.20;99.90;;;;;;5045554;28;20479;-74
2024/03/23 11:14:57;;;;;;;13.17;4.73;;;5.10;99.90;;;;;;5046004;28;20965;-75
2024/03/23 11:17:25;;;;;;;13.50;5.80;;;5.10;99.90;;;;;;5045947;28;20464;-75
2024/03/23 11:19:56;;;;;;;17.23;7.00;;;5.40;99.90;;;;;;5042946;28;20457;-74
2024/03/23 11:22:43;;;;;;;12.43;4.63;;;6.10;99.90;;;;;;5043781;28;20726;-76
2024/03/23 11:25:20;;;;;;;12.70;4.43;;;6.70;99.90;;;;;;5042837;28;20442;-75
2024/03/23 11:27:49;;;;;;;14.03;5.00;;;7.10;99.90;;;;;;5040176;28;20496;-73
2024/03/23 11:30:19;;;;;;;11.63;4.43;;;7.30;99.90;;;;;;5046164;28;20453;-76
2024/03/23 11:32:47;;;;;;;13.43;4.80;;;7.60;99.90;;;;;;5044090;28;20537;-75
2024/03/23 11:35:27;;;;;;;11.20;4.00;;;8.50;99.90;;;;;;5047134;28;20451;-73
2024/03/23 11:38:17;;;;;;;10.00;3.87;;;9.10;99.90;;;;;;5040445;28;20890;-74
2024/03/23 11:40:46;;;;;;;9.80;3.70;;;10.20;99.90;;;;;;5059129;28;20452;-73
2024/03/23 11:43:14;;;;;;;10.77;3.20;;;10.30;99.90;;;;;;5045623;28;20850;-72
2024/03/23 11:45:43;;;;;;;9.63;3.43;;;10.20;99.90;;;;;;5046537;28;21137;-73
2024/03/23 11:48:12;;;;;;;9.13;2.77;;;9.90;99.90;;;;;;5047823;28;20457;-76
2024/03/23 11:50:40;;;;;;;8.27;2.57;;;9.80;99.90;;;;;;5051105;28;20448;-73
2024/03/23 11:53:15;;;;;;;9.00;3.03;;;9.40;99.90;;;;;;5047712;28;20468;-73
2024/03/23 11:55:43;;;;;;;8.60;2.53;;;9.00;99.90;;;;;;5048612;28;20535;-73
2024/03/23 11:58:12;;;;;;;9.53;2.57;;;8.90;99.90;;;;;;5050733;28;20448;-73
2024/03/23 12:00:38;;;;;;;9.20;2.30;;;8.80;99.90;;;;;;5050825;28;20455;-73
2024/03/23 12:03:06;;;;;;;8.70;2.33;;;8.90;99.90;;;;;;5051348;28;21053;-73
2024/03/23 12:05:33;;;;;;;11.07;3.00;;;9.10;99.90;;;;;;5072303;28;20448;-73
2024/03/23 12:08:23;;;;;;;10.37;2.20;;;9.20;99.90;;;;;;5056320;28;20479;-74
2024/03/23 12:10:51;;;;;;;11.60;2.73;;;9.20;99.90;;;;;;5059271;28;20451;-73
2024/03/23 12:13:21;;;;;;;9.13;2.37;;;9.10;99.90;;;;;;5055035;28;20471;-76
2024/03/23 12:15:50;;;;;;;7.00;1.77;;;8.90;99.90;;;;;;5049479;28;20445;-72
2024/03/23 12:18:17;;;;;;;11.87;2.60;;;8.60;99.90;;;;;;5055295;28;21307;-74
2024/03/23 12:20:43;;;;;;;8.30;1.70;;;8.60;99.90;;;;;;5054719;28;20545;-73
2024/03/23 12:23:12;;;;;;;11.97;2.03;;;8.60;99.90;;;;;;5055070;28;20476;-73
2024/03/23 12:25:39;;;;;;;8.07;1.50;;;8.60;99.90;;;;;;5052489;28;20452;-73
2024/03/23 12:28:07;;;;;;;8.00;1.30;;;8.60;99.90;;;;;;5054947;28;20447;-73
2024/03/23 12:30:35;;;;;;;8.03;1.43;;;8.70;99.90;;;;;;5054624;28;20530;-75
2024/03/23 12:33:03;;;;;;;6.87;1.67;;;9.10;99.90;;;;;;5053957;28;20521;-70
2024/03/23 12:35:29;;;;;;;9.70;2.00;;;9.40;99.90;;;;;;5054836;28;21032;-75
2024/03/23 12:37:56;;;;;;;10.20;1.90;;;9.30;99.90;;;;;;5053405;28;20441;-72
2024/03/23 12:40:22;;;;;;;8.83;2.13;;;9.70;99.90;;;;;;5050201;28;20441;-72
2024/03/23 12:42:49;;;;;;;8.00;1.90;;;9.90;99.90;;;;;;5048318;28;20478;-72
2024/03/23 12:45:15;;;;;;;9.57;1.97;;;9.90;99.90;;;;;;5048573;28;20457;-72
2024/03/23 12:47:43;;;;;;;9.90;2.00;;;10.00;99.90;;;;;;5042820;28;20459;-72
2024/03/23 12:50:10;;;;;;;12.00;2.30;;;9.90;99.90;;;;;;5045640;28;20473;-74
2024/03/23 12:52:37;;;;;;;10.10;2.13;;;9.80;99.90;;;;;;5053093;28;20553;-72